createdAt,value
2018-12-01T00:01:48.251Z,12.70
2018-12-01T00:04:16.338Z,12.90
2018-12-01T00:06:44.481Z,12.90
2018-12-01T00:09:12.593Z,12.80
2018-12-01T00:11:40.708Z,12.70
2018-12-01T00:14:08.813Z,12.70
2018-12-01T00:16:36.926Z,13.00
2018-12-01T00:19:05.056Z,13.00
2018-12-01T00:21:33.289Z,12.70
2018-12-01T00:24:01.497Z,12.70
2018-12-01T00:26:29.650Z,12.70
2018-12-01T00:28:57.813Z,12.70
2018-12-01T00:31:25.983Z,12.90
2018-12-01T00:33:54.082Z,12.80
2018-12-01T00:36:22.225Z,12.50
2018-12-01T00:38:50.390Z,12.70
2018-12-01T00:41:18.501Z,12.50
2018-12-01T00:43:46.629Z,12.80
2018-12-01T00:46:14.731Z,12.80
2018-12-01T00:48:42.850Z,12.70
2018-12-01T00:51:10.983Z,12.70
2018-12-01T00:53:39.072Z,12.60
2018-12-01T00:56:07.180Z,12.70
2018-12-01T00:58:35.297Z,12.30
2018-12-01T01:01:03.464Z,12.30
2018-12-01T01:03:31.574Z,12.60
2018-12-01T01:05:59.685Z,12.50
2018-12-01T01:08:27.828Z,12.70
2018-12-01T01:10:55.958Z,12.60
2018-12-01T01:13:24.090Z,12.40
2018-12-01T01:15:52.189Z,12.20
2018-12-01T01:18:20.326Z,12.30
2018-12-01T01:20:48.440Z,12.40
2018-12-01T01:23:16.978Z,12.40
2018-12-01T01:25:45.085Z,12.10
2018-12-01T01:28:13.218Z,12.00
2018-12-01T01:30:41.350Z,12.20
2018-12-01T01:33:21.050Z,12.00
2018-12-01T01:35:49.150Z,12.20
2018-12-01T01:38:17.284Z,12.50
2018-12-01T01:40:45.427Z,12.50
2018-12-01T01:43:13.575Z,12.40
2018-12-01T01:45:41.687Z,12.40
2018-12-01T01:48:09.799Z,12.30
2018-12-01T01:50:37.897Z,12.30
2018-12-01T01:53:05.985Z,12.20
2018-12-01T01:55:34.077Z,12.10
2018-12-01T01:58:02.158Z,12.10
2018-12-01T02:00:30.247Z,12.00
2018-12-01T02:02:58.335Z,12.10
2018-12-01T02:05:26.430Z,12.20
2018-12-01T02:07:54.518Z,12.20
2018-12-01T02:10:22.602Z,12.20
2018-12-01T02:12:50.714Z,12.10
2018-12-01T02:15:18.798Z,12.00
2018-12-01T02:17:46.888Z,12.10
2018-12-01T02:20:15.950Z,12.20
2018-12-01T02:22:44.082Z,11.60
2018-12-01T02:25:14.045Z,11.80
2018-12-01T02:27:42.172Z,11.80
2018-12-01T02:30:12.457Z,11.90
2018-12-01T02:32:40.524Z,11.70
2018-12-01T02:35:13.116Z,11.80
2018-12-01T02:37:41.213Z,11.80
2018-12-01T02:40:10.454Z,11.80
2018-12-01T02:42:38.851Z,11.70
2018-12-01T02:45:18.512Z,11.60
2018-12-01T02:47:46.635Z,12.10
2018-12-01T02:50:15.390Z,11.90
2018-12-01T02:52:43.550Z,12.00
2018-12-01T02:55:11.735Z,12.20
2018-12-01T02:57:40.380Z,12.10
2018-12-01T03:00:10.086Z,12.10
2018-12-01T03:02:38.430Z,12.20
2018-12-01T03:05:08.496Z,12.20
2018-12-01T03:07:36.597Z,12.40
2018-12-01T03:10:07.097Z,11.90
2018-12-01T03:12:35.226Z,12.00
2018-12-01T03:15:03.351Z,11.80
2018-12-01T03:17:31.722Z,12.10
2018-12-01T03:19:59.876Z,12.00
2018-12-01T03:22:28.015Z,12.10
2018-12-01T03:24:56.146Z,12.20
2018-12-01T03:27:24.272Z,12.30
2018-12-01T03:29:52.507Z,12.20
2018-12-01T03:32:20.616Z,12.20
2018-12-01T03:34:48.746Z,12.10
2018-12-01T03:37:16.875Z,12.20
2018-12-01T03:39:44.994Z,12.20
2018-12-01T03:42:13.116Z,12.10
2018-12-01T03:44:41.268Z,12.20
2018-12-01T03:47:09.418Z,12.10
2018-12-01T03:49:37.530Z,12.10
2018-12-01T03:52:05.834Z,12.40
2018-12-01T03:54:33.947Z,12.40
2018-12-01T03:57:02.073Z,12.20
2018-12-01T03:59:30.230Z,12.10
2018-12-01T04:01:58.341Z,12.40
2018-12-01T04:04:26.438Z,12.10
2018-12-01T04:06:54.562Z,12.20
2018-12-01T04:09:24.445Z,12.10
2018-12-01T04:11:52.628Z,12.20
2018-12-01T04:14:20.729Z,12.30
2018-12-01T04:16:48.858Z,11.90
2018-12-01T04:19:17.000Z,11.70
2018-12-01T04:21:45.150Z,12.00
2018-12-01T04:24:13.323Z,12.20
2018-12-01T04:26:41.425Z,12.10
2018-12-01T04:29:09.530Z,12.20
2018-12-01T04:31:37.646Z,12.00
2018-12-01T04:34:06.129Z,12.10
2018-12-01T04:36:34.235Z,12.00
2018-12-01T04:39:02.377Z,12.20
2018-12-01T04:41:30.536Z,12.20
2018-12-01T04:43:58.616Z,12.40
2018-12-01T04:46:26.730Z,12.60
2018-12-01T04:48:54.870Z,12.10
2018-12-01T04:51:23.002Z,12.20
2018-12-01T04:53:51.104Z,12.10
2018-12-01T04:56:19.241Z,12.30
2018-12-01T04:58:47.350Z,12.20
2018-12-01T05:01:15.474Z,12.20
2018-12-01T05:03:43.585Z,12.20
2018-12-01T05:06:11.736Z,12.20
2018-12-01T05:08:39.922Z,11.70
2018-12-01T05:11:08.067Z,12.00
2018-12-01T05:13:36.172Z,12.00
2018-12-01T05:16:04.290Z,11.70
2018-12-01T05:18:32.499Z,11.90
2018-12-01T05:21:01.358Z,12.20
2018-12-01T05:23:29.497Z,12.10
2018-12-01T05:25:57.614Z,12.10
2018-12-01T05:28:25.747Z,12.00
2018-12-01T05:30:53.842Z,11.90
2018-12-01T05:33:21.966Z,12.00
2018-12-01T05:35:50.043Z,11.90
2018-12-01T05:38:18.193Z,11.80
2018-12-01T05:40:46.402Z,11.80
2018-12-01T05:43:14.534Z,11.70
2018-12-01T05:45:42.669Z,11.70
2018-12-01T05:48:10.807Z,12.00
2018-12-01T05:50:38.926Z,11.90
2018-12-01T05:53:07.054Z,11.80
2018-12-01T05:55:35.194Z,12.00
2018-12-01T05:58:03.338Z,12.00
2018-12-01T06:00:31.487Z,11.90
2018-12-01T06:02:59.621Z,11.60
2018-12-01T06:05:27.764Z,11.90
2018-12-01T06:07:55.886Z,12.20
2018-12-01T06:10:24.039Z,12.20
2018-12-01T06:12:53.417Z,12.40
2018-12-01T06:15:21.795Z,12.30
2018-12-01T06:17:49.916Z,11.90
2018-12-01T06:20:21.138Z,11.60
2018-12-01T06:22:49.269Z,11.80
2018-12-01T06:25:18.443Z,11.70
2018-12-01T06:27:46.579Z,11.50
2018-12-01T06:30:15.586Z,11.90
2018-12-01T06:32:43.964Z,11.70
2018-12-01T06:35:12.165Z,11.60
2018-12-01T06:37:40.430Z,11.60
2018-12-01T06:40:12.119Z,11.70
2018-12-01T06:42:39.794Z,11.70
2018-12-01T06:45:09.426Z,12.00
2018-12-01T06:47:37.561Z,11.70
2018-12-01T06:50:08.645Z,11.60
2018-12-01T06:52:36.782Z,11.50
2018-12-01T06:55:05.411Z,11.60
2018-12-01T06:57:33.544Z,11.40
2018-12-01T07:00:01.655Z,11.40
2018-12-01T07:02:29.796Z,11.60
2018-12-01T07:04:57.895Z,12.10
2018-12-01T07:07:26.055Z,11.50
2018-12-01T07:09:54.154Z,11.20
2018-12-01T07:12:22.251Z,11.30
2018-12-01T07:14:50.398Z,11.40
2018-12-01T07:17:18.529Z,11.50
2018-12-01T07:19:46.633Z,11.50
2018-12-01T07:22:14.738Z,11.10
2018-12-01T07:24:42.853Z,10.90
2018-12-01T07:27:11.061Z,11.10
2018-12-01T07:29:39.152Z,10.90
2018-12-01T07:32:07.285Z,11.10
2018-12-01T07:34:35.394Z,11.00
2018-12-01T07:37:03.511Z,11.00
2018-12-01T07:39:31.637Z,11.10
2018-12-01T07:41:59.782Z,11.40
2018-12-01T07:44:27.854Z,11.70
2018-12-01T07:46:55.966Z,11.50
2018-12-01T07:49:24.107Z,11.40
2018-12-01T07:51:52.217Z,11.10
2018-12-01T07:54:20.329Z,10.90
2018-12-01T07:56:48.440Z,11.10
2018-12-01T07:59:16.670Z,11.60
2018-12-01T08:01:44.787Z,11.40
2018-12-01T08:04:12.895Z,11.60
2018-12-01T08:06:41.015Z,11.70
2018-12-01T08:09:09.163Z,11.60
2018-12-01T08:11:37.290Z,11.70
2018-12-01T08:14:05.431Z,12.10
2018-12-01T08:16:33.542Z,12.50
2018-12-01T08:19:01.802Z,12.10
2018-12-01T08:21:29.940Z,12.40
2018-12-01T08:23:58.060Z,12.20
2018-12-01T08:26:26.185Z,12.40
2018-12-01T08:28:54.322Z,12.60
2018-12-01T08:31:22.460Z,12.80
2018-12-01T08:33:50.590Z,12.90
2018-12-01T08:36:18.720Z,12.70
2018-12-01T08:38:46.871Z,13.00
2018-12-01T08:41:15.058Z,12.90
2018-12-01T08:43:43.181Z,13.30
2018-12-01T08:46:11.321Z,13.40
2018-12-01T08:48:39.473Z,13.40
2018-12-01T08:51:07.598Z,12.70
2018-12-01T08:53:35.725Z,13.20
2018-12-01T08:56:03.866Z,13.10
2018-12-01T08:58:31.996Z,13.30
2018-12-01T09:01:00.170Z,13.00
2018-12-01T09:03:28.342Z,13.20
2018-12-01T09:05:56.477Z,13.70
2018-12-01T09:08:24.597Z,13.80
2018-12-01T09:10:52.802Z,13.20
2018-12-01T09:13:20.930Z,13.50
2018-12-01T09:15:49.093Z,13.10
2018-12-01T09:18:17.202Z,13.40
2018-12-01T09:20:45.344Z,14.00
2018-12-01T09:23:13.701Z,14.60
2018-12-01T09:25:41.845Z,14.80
2018-12-01T09:28:10.182Z,14.00
2018-12-01T09:30:40.098Z,14.50
2018-12-01T09:33:08.211Z,14.20
2018-12-01T09:35:36.367Z,14.10
2018-12-01T09:38:04.565Z,14.50
2018-12-01T09:40:33.103Z,14.50
2018-12-01T09:43:01.998Z,14.40
2018-12-01T09:45:31.029Z,14.70
2018-12-01T09:47:59.146Z,14.30
2018-12-01T09:50:27.254Z,14.10
2018-12-01T09:52:57.151Z,14.90
2018-12-01T09:55:26.496Z,14.70
2018-12-01T09:57:54.687Z,14.80
2018-12-01T10:00:27.013Z,14.30
2018-12-01T10:02:55.362Z,15.00
2018-12-01T10:05:23.533Z,16.00
2018-12-01T10:07:52.108Z,15.00
2018-12-01T10:10:21.271Z,14.40
2018-12-01T10:12:50.440Z,14.80
2018-12-01T10:15:21.885Z,15.60
2018-12-01T10:17:50.014Z,15.30
2018-12-01T10:20:21.539Z,15.30
2018-12-01T10:22:49.642Z,15.40
2018-12-01T10:25:18.038Z,16.50
2018-12-01T10:27:46.645Z,16.70
2018-12-01T10:30:18.843Z,18.10
2018-12-01T10:32:47.291Z,18.20
2018-12-01T10:35:16.504Z,17.60
2018-12-01T10:37:46.317Z,16.50
2018-12-01T10:40:14.440Z,17.50
2018-12-01T10:42:42.872Z,18.40
2018-12-01T10:45:13.389Z,17.70
2018-12-01T10:47:41.926Z,17.60
2018-12-01T10:50:15.567Z,16.80
2018-12-01T10:52:43.951Z,17.40
2018-12-01T10:55:22.281Z,17.90
2018-12-01T10:57:50.903Z,17.30
2018-12-01T11:00:24.540Z,16.30
2018-12-01T11:03:59.690Z,16.30
2018-12-01T11:06:28.125Z,16.40
2018-12-01T11:08:56.249Z,15.90
2018-12-01T11:11:24.429Z,15.50
2018-12-01T11:13:52.546Z,15.50
2018-12-01T11:16:20.676Z,15.10
2018-12-01T11:18:48.820Z,14.90
2018-12-01T11:21:16.964Z,14.80
2018-12-01T11:23:45.105Z,15.00
2018-12-01T11:26:13.221Z,14.70
2018-12-01T11:28:41.359Z,14.30
2018-12-01T11:31:09.582Z,14.50
2018-12-01T11:33:37.716Z,15.00
2018-12-01T11:36:05.868Z,14.90
2018-12-01T11:38:34.087Z,14.40
2018-12-01T11:41:02.226Z,15.10
2018-12-01T11:43:30.387Z,15.30
2018-12-01T11:45:58.492Z,15.40
2018-12-01T11:48:26.612Z,16.60
2018-12-01T11:50:54.747Z,17.40
2018-12-01T11:53:22.857Z,17.10
2018-12-01T11:55:50.996Z,16.30
2018-12-01T11:58:19.114Z,16.20
2018-12-01T12:00:47.250Z,16.80
2018-12-01T12:03:15.690Z,16.90
2018-12-01T12:05:43.820Z,15.90
2018-12-01T12:08:19.973Z,15.90
2018-12-01T12:10:48.102Z,15.60
2018-12-01T12:13:16.295Z,15.70
2018-12-01T12:15:44.574Z,15.50
2018-12-01T12:18:12.945Z,15.30
2018-12-01T12:20:41.090Z,14.90
2018-12-01T12:23:09.247Z,15.10
2018-12-01T12:25:37.392Z,14.90
2018-12-01T12:28:05.845Z,14.80
2018-12-01T12:30:34.021Z,14.30
2018-12-01T12:33:02.517Z,14.40
2018-12-01T12:35:30.682Z,14.10
2018-12-01T12:37:58.818Z,13.80
2018-12-01T12:40:27.170Z,14.20
2018-12-01T12:42:56.330Z,14.00
2018-12-01T12:45:24.487Z,14.10
2018-12-01T12:47:52.629Z,14.20
2018-12-01T12:50:20.776Z,14.30
2018-12-01T12:52:49.971Z,14.40
2018-12-01T12:55:19.950Z,14.50
2018-12-01T12:57:48.418Z,13.80
2018-12-01T13:00:18.355Z,14.10
2018-12-01T13:02:54.714Z,13.80
2018-12-01T13:05:24.449Z,13.80
2018-12-01T13:07:52.566Z,14.10
2018-12-01T13:10:21.808Z,14.30
2018-12-01T13:12:49.989Z,14.10
2018-12-01T13:15:19.122Z,14.40
2018-12-01T13:17:47.315Z,13.90
2018-12-01T13:20:16.723Z,14.10
2018-12-01T13:22:45.634Z,14.20
2018-12-01T13:25:14.547Z,14.20
2018-12-01T13:27:44.282Z,14.30
2018-12-01T13:30:16.901Z,14.30
2018-12-01T13:32:45.038Z,14.30
2018-12-01T13:35:13.190Z,14.10
2018-12-01T13:37:41.311Z,14.00
2018-12-01T13:40:13.317Z,13.80
2018-12-01T13:42:41.766Z,14.30
2018-12-01T13:45:15.733Z,14.40
2018-12-01T13:47:44.087Z,14.30
2018-12-01T13:50:14.294Z,13.80
2018-12-01T13:52:43.602Z,14.00
2018-12-01T13:55:11.715Z,13.80
2018-12-01T13:57:39.830Z,14.00
2018-12-01T14:00:12.350Z,14.00
2018-12-01T14:02:40.498Z,14.20
2018-12-01T14:05:10.725Z,14.60
2018-12-01T14:07:38.876Z,14.70
2018-12-01T14:10:13.190Z,14.20
2018-12-01T14:12:41.368Z,14.30
2018-12-01T14:15:12.942Z,14.20
2018-12-01T14:17:41.072Z,13.70
2018-12-01T14:20:11.347Z,13.80
2018-12-01T14:22:39.469Z,13.80
2018-12-01T14:25:09.857Z,13.70
2018-12-01T14:27:38.530Z,14.00
2018-12-01T14:30:11.397Z,13.80
2018-12-01T14:32:39.521Z,13.30
2018-12-01T14:35:14.341Z,13.50
2018-12-01T14:37:42.730Z,13.70
2018-12-01T14:40:12.135Z,14.10
2018-12-01T14:42:40.380Z,14.10
2018-12-01T14:45:10.902Z,14.20
2018-12-01T14:47:39.121Z,14.00
2018-12-01T14:50:09.546Z,13.80
2018-12-01T14:52:37.671Z,13.70
2018-12-01T14:55:09.551Z,13.70
2018-12-01T14:57:37.790Z,13.70
2018-12-01T15:00:16.789Z,13.60
2018-12-01T15:02:44.934Z,13.90
2018-12-01T15:05:13.057Z,13.70
2018-12-01T15:07:41.215Z,13.40
2018-12-01T15:10:10.768Z,13.70
2018-12-01T15:12:38.902Z,13.70
2018-12-01T15:15:08.689Z,13.70
2018-12-01T15:17:36.844Z,13.70
2018-12-01T15:20:14.977Z,13.30
2018-12-01T15:22:43.774Z,13.30
2018-12-01T15:25:16.779Z,13.30
2018-12-01T15:27:44.923Z,13.50
2018-12-01T15:30:15.042Z,13.80
2018-12-01T15:32:44.321Z,13.20
2018-12-01T15:35:13.634Z,13.40
2018-12-01T15:37:42.315Z,13.60
2018-12-01T15:40:11.945Z,13.20
2018-12-01T15:42:40.182Z,13.50
2018-12-01T15:45:09.919Z,13.20
2018-12-01T15:47:38.171Z,13.30
2018-12-01T15:50:09.527Z,13.40
2018-12-01T15:52:37.851Z,13.60
2018-12-01T15:55:08.226Z,13.60
2018-12-01T15:57:36.441Z,13.50
2018-12-01T16:00:10.337Z,13.40
2018-12-01T16:02:38.443Z,13.80
2018-12-01T16:05:07.092Z,13.10
2018-12-01T16:07:35.226Z,13.70
2018-12-01T16:10:03.395Z,13.30
2018-12-01T16:12:31.506Z,13.40
2018-12-01T16:14:59.642Z,13.40
2018-12-01T16:17:27.770Z,13.60
2018-12-01T16:19:55.947Z,13.70
2018-12-01T16:22:24.072Z,13.30
2018-12-01T16:24:52.214Z,12.80
2018-12-01T16:27:21.577Z,13.00
2018-12-01T16:29:48.474Z,12.90
2018-12-01T16:32:16.602Z,13.20
2018-12-01T16:34:44.732Z,13.10
2018-12-01T16:37:12.966Z,13.30
2018-12-01T16:39:41.110Z,13.30
2018-12-01T16:42:09.339Z,13.50
2018-12-01T16:44:37.452Z,13.00
2018-12-01T16:47:05.920Z,13.10
2018-12-01T16:49:34.038Z,13.00
2018-12-01T16:52:03.113Z,13.20
2018-12-01T16:54:31.223Z,13.40
2018-12-01T16:56:59.331Z,13.50
2018-12-01T16:59:27.473Z,13.10
2018-12-01T17:01:55.592Z,13.20
2018-12-01T17:04:23.722Z,13.30
2018-12-01T17:06:51.850Z,13.30
2018-12-01T17:09:20.003Z,12.90
2018-12-01T17:11:48.140Z,12.70
2018-12-01T17:14:16.234Z,13.00
2018-12-01T17:16:44.367Z,12.70
2018-12-01T17:19:12.688Z,13.00
2018-12-01T17:21:40.794Z,13.10
2018-12-01T17:24:08.910Z,12.70
2018-12-01T17:26:37.083Z,12.60
2018-12-01T17:29:05.927Z,13.10
2018-12-01T17:31:34.053Z,12.90
2018-12-01T17:34:03.080Z,12.60
2018-12-01T17:36:31.250Z,12.80
2018-12-01T17:38:59.363Z,12.50
2018-12-01T17:41:29.588Z,12.90
2018-12-01T17:44:03.607Z,13.00
2018-12-01T17:46:31.727Z,12.40
2018-12-01T17:48:59.869Z,12.10
2018-12-01T17:51:27.962Z,12.00
2018-12-01T17:54:00.879Z,12.40
2018-12-01T17:56:29.042Z,12.10
2018-12-01T17:58:57.157Z,12.20
2018-12-01T18:01:25.304Z,12.30
2018-12-01T18:03:53.423Z,12.10
2018-12-01T18:06:21.573Z,11.90
2018-12-01T18:08:49.670Z,11.80
2018-12-01T18:11:17.857Z,11.40
2018-12-01T18:13:45.972Z,11.80
2018-12-01T18:16:14.119Z,12.00
2018-12-01T18:18:42.235Z,11.80
2018-12-01T18:21:10.350Z,12.10
2018-12-01T18:23:38.512Z,11.50
2018-12-01T18:26:07.882Z,11.50
2018-12-01T18:28:45.066Z,11.90
2018-12-01T18:31:16.290Z,11.70
2018-12-01T18:33:45.920Z,11.70
2018-12-01T18:36:14.694Z,11.50
2018-12-01T18:38:44.610Z,11.80
2018-12-01T18:43:47.166Z,11.80
2018-12-01T18:46:15.602Z,11.60
2018-12-01T18:48:44.585Z,11.70
2018-12-01T18:51:12.874Z,12.00
2018-12-01T18:53:40.997Z,11.70
2018-12-01T18:56:09.201Z,11.70
2018-12-01T18:58:37.300Z,11.50
2018-12-01T19:01:06.991Z,11.70
2018-12-01T19:03:36.085Z,11.60
2018-12-01T19:06:04.278Z,11.40
2018-12-01T19:08:32.742Z,11.70
2018-12-01T19:11:00.846Z,11.60
2018-12-01T19:13:28.994Z,11.70
2018-12-01T19:15:57.135Z,11.70
2018-12-01T19:18:25.262Z,11.60
2018-12-01T19:20:53.374Z,11.80
2018-12-01T19:23:21.790Z,11.30
2018-12-01T19:25:51.207Z,11.50
2018-12-01T19:28:19.329Z,11.30
2018-12-01T19:30:47.496Z,11.40
2018-12-01T19:33:20.142Z,11.60
2018-12-01T19:35:49.423Z,11.40
2018-12-01T19:38:21.924Z,11.40
2018-12-01T19:40:50.090Z,11.50
2018-12-01T19:43:18.194Z,11.40
2018-12-01T19:45:46.353Z,11.20
2018-12-01T19:48:14.475Z,11.20
2018-12-01T19:50:42.974Z,11.50
2018-12-01T19:53:12.281Z,11.40
2018-12-01T19:55:40.435Z,11.10
2018-12-01T19:58:12.207Z,11.40
2018-12-01T20:00:41.532Z,11.40
2018-12-01T20:03:15.834Z,11.30
2018-12-01T20:05:44.002Z,11.60
2018-12-01T20:08:13.009Z,11.40
2018-12-01T20:10:43.228Z,11.40
2018-12-01T20:13:17.033Z,11.60
2018-12-01T20:15:46.946Z,11.60
2018-12-01T20:18:20.555Z,11.20
2018-12-01T20:20:48.714Z,11.40
2018-12-01T20:23:16.839Z,11.30
2018-12-01T20:25:46.810Z,11.50
2018-12-01T20:28:14.925Z,11.90
2018-12-01T20:30:43.038Z,11.80
2018-12-01T20:33:11.536Z,11.20
2018-12-01T20:37:52.645Z,11.70
2018-12-01T20:40:20.763Z,11.80
2018-12-01T20:42:48.887Z,11.30
2018-12-01T20:45:17.022Z,11.40
2018-12-01T20:47:45.141Z,11.50
2018-12-01T20:50:14.852Z,11.30
2018-12-01T20:52:43.857Z,11.20
2018-12-01T20:55:29.382Z,11.30
2018-12-01T20:58:00.149Z,11.60
2018-12-01T21:00:28.274Z,11.70
2018-12-01T21:02:56.430Z,11.60
2018-12-01T21:05:24.881Z,12.00
2018-12-01T21:07:53.084Z,12.00
2018-12-01T21:10:24.402Z,11.70
2018-12-01T21:12:52.978Z,11.50
2018-12-01T21:15:21.104Z,11.20
2018-12-01T21:17:49.223Z,11.40
2018-12-01T21:20:18.518Z,11.60
2018-12-01T21:22:48.146Z,11.60
2018-12-01T21:25:17.847Z,11.50
2018-12-01T21:27:45.965Z,11.60
2018-12-01T21:30:15.645Z,11.40
2018-12-01T21:32:44.217Z,11.60
2018-12-01T21:35:13.210Z,11.70
2018-12-01T21:37:41.421Z,12.00
2018-12-01T21:40:14.895Z,11.80
2018-12-01T21:42:43.027Z,11.60
2018-12-01T21:45:12.159Z,11.50
2018-12-01T21:47:40.294Z,11.60
2018-12-01T21:50:17.410Z,11.40
2018-12-01T21:52:46.942Z,11.80
2018-12-01T21:55:15.135Z,11.60
2018-12-01T21:57:44.309Z,11.60
2018-12-01T22:00:17.583Z,11.40
2018-12-01T22:02:47.303Z,11.60
2018-12-01T22:05:17.232Z,11.60
2018-12-01T22:07:45.372Z,11.70
2018-12-01T22:10:14.702Z,11.80
2018-12-01T22:12:42.814Z,11.70
2018-12-01T22:15:13.320Z,11.80
2018-12-01T22:17:41.419Z,11.80
2018-12-01T22:20:14.021Z,12.00
2018-12-01T22:22:42.149Z,12.00
2018-12-01T22:25:11.003Z,11.40
2018-12-01T22:27:39.145Z,11.80
2018-12-01T22:30:23.505Z,12.20
2018-12-01T22:32:53.795Z,12.40
2018-12-01T22:35:22.958Z,12.00
2018-12-01T22:37:51.643Z,12.00
2018-12-01T22:40:26.101Z,12.00
2018-12-01T22:42:56.390Z,12.40
2018-12-01T22:45:24.559Z,12.20
2018-12-01T22:47:53.160Z,12.30
2018-12-01T22:50:22.038Z,12.60
2018-12-01T22:52:50.930Z,12.10
2018-12-01T22:55:20.302Z,12.30
2018-12-01T22:57:53.745Z,11.90
2018-12-01T23:00:26.612Z,11.50
2018-12-01T23:02:54.713Z,11.80
2018-12-01T23:05:22.829Z,12.00
2018-12-01T23:07:50.963Z,12.20
2018-12-01T23:10:19.079Z,12.50
2018-12-01T23:12:47.332Z,12.10
2018-12-01T23:15:17.315Z,11.80
2018-12-01T23:17:46.642Z,11.90
2018-12-01T23:20:20.114Z,12.00
2018-12-01T23:22:48.903Z,12.00
2018-12-01T23:25:17.030Z,12.10
2018-12-01T23:27:45.142Z,12.50
2018-12-01T23:30:18.434Z,12.60
2018-12-01T23:32:48.262Z,12.60
2018-12-01T23:35:16.385Z,12.30
2018-12-01T23:37:44.505Z,12.50
2018-12-01T23:40:13.318Z,12.70
2018-12-01T23:42:41.721Z,12.90
2018-12-01T23:45:14.147Z,12.60
2018-12-01T23:47:42.741Z,12.50
2018-12-01T23:50:13.078Z,12.20
2018-12-01T23:52:41.406Z,12.50
2018-12-01T23:55:11.468Z,12.60
2018-12-01T23:57:39.578Z,12.60
